Time;durP1;ratioP1;P1;durP2;ratioP2;P2;SDS_P1;SDS_P2;PMS_P1;PMS_P2;Temp;Humidity;BMP_temperature;BMP_pressure;BME280_temperature;BME280_humidity;BME280_pressure;Samples;Min_cycle;Max_cycle;Signal;HPM_P1;HPM_P2
2022/03/17 00:02:24;;;;;;;36.20;32.60;;;8.30;99.90;;;9.02;73.44;98457.28;5190483;28;20650;-57
2022/03/17 00:04:57;;;;;;;37.57;33.77;;;8.30;99.90;;;8.99;72.01;98453.63;5181597;28;20192;-58
2022/03/17 00:07:31;;;;;;;38.67;34.80;;;8.30;99.90;;;9.01;72.77;98455.50;5197873;28;20206;-58
2022/03/17 00:10:06;;;;;;;37.30;33.43;;;8.30;99.90;;;8.98;72.66;98450.16;5187327;28;20229;-58
2022/03/17 00:12:39;;;;;;;38.67;34.80;;;8.30;99.90;;;8.93;74.34;98456.63;5191245;28;20194;-58
2022/03/17 00:15:13;;;;;;;35.70;32.13;;;8.20;99.90;;;8.92;74.83;98446.28;5193460;28;20681;-58
2022/03/17 00:17:46;;;;;;;36.67;33.07;;;8.10;99.90;;;8.87;75.84;98452.72;5179573;28;20542;-56
2022/03/17 00:20:19;;;;;;;37.93;34.00;;;8.10;99.90;;;8.79;76.53;98457.28;5193842;28;20218;-58
2022/03/17 00:22:53;;;;;;;37.33;33.47;;;8.10;99.90;;;8.73;76.32;98450.06;5194207;28;20205;-58
2022/03/17 00:25:29;;;;;;;34.47;30.80;;;8.00;99.90;;;8.70;75.63;98443.81;5188958;28;20194;-58
2022/03/17 00:28:02;;;;;;;34.90;31.30;;;7.90;99.90;;;8.72;75.13;98444.84;5187465;28;20214;-58
2022/03/17 00:30:35;;;;;;;37.87;33.97;;;8.00;99.90;;;8.71;74.60;98448.16;5187703;28;20209;-58
2022/03/17 00:33:08;;;;;;;35.13;31.43;;;8.00;99.90;;;8.72;73.92;98434.63;5188403;28;20198;-58
2022/03/17 00:35:42;;;;;;;38.93;35.03;;;8.00;99.90;;;8.73;75.04;98436.44;5186782;28;20226;-58
2022/03/17 00:38:19;;;;;;;35.23;31.53;;;8.00;99.90;;;8.68;75.45;98437.75;5184811;28;20330;-57
2022/03/17 00:40:52;;;;;;;35.53;32.03;;;7.90;99.90;;;8.64;75.92;98435.72;5182104;28;20257;-58
2022/03/17 00:43:25;;;;;;;35.47;31.90;;;7.90;99.90;;;8.62;76.52;98437.31;5186765;28;20195;-58
2022/03/17 00:45:58;;;;;;;36.57;32.80;;;7.90;99.90;;;8.57;76.37;98435.28;5187608;28;20291;-58
2022/03/17 00:48:31;;;;;;;36.60;32.90;;;7.90;99.90;;;8.62;75.42;98437.31;5180528;28;20230;-58
2022/03/17 00:51:04;;;;;;;36.43;32.70;;;7.90;99.90;;;8.65;74.71;98428.22;5187880;28;20206;-56
2022/03/17 00:53:39;;;;;;;35.07;31.47;;;7.90;99.90;;;8.71;73.87;98417.59;5188360;28;20698;-58
2022/03/17 00:56:12;;;;;;;38.13;34.23;;;8.00;99.90;;;8.74;72.72;98423.78;5181658;28;20254;-57
2022/03/17 00:58:47;;;;;;;36.40;32.50;;;8.00;99.90;;;8.69;73.33;98424.22;5189087;28;20218;-58
2022/03/17 01:01:20;;;;;;;36.73;32.93;;;8.00;99.90;;;8.71;73.37;98426.13;5197176;28;20214;-58
2022/03/17 01:03:54;;;;;;;36.13;32.20;;;8.00;99.90;;;8.71;74.12;98436.31;5190054;28;20199;-58
2022/03/17 01:06:27;;;;;;;34.53;30.93;;;8.00;99.90;;;8.74;76.03;98433.09;5186609;28;20207;-58
2022/03/17 01:09:01;;;;;;;34.30;31.00;;;7.80;99.90;;;8.64;76.81;98438.28;5186545;28;20698;-57
2022/03/17 01:11:34;;;;;;;34.53;30.77;;;7.70;99.90;;;8.45;77.97;98434.38;5186085;28;20194;-58
2022/03/17 01:14:07;;;;;;;33.20;29.87;;;7.60;99.90;;;8.42;78.63;98438.38;5185762;28;20206;-58
2022/03/17 01:16:40;;;;;;;35.43;31.73;;;7.60;99.90;;;8.44;79.12;98442.81;5182011;28;20242;-58
2022/03/17 01:19:14;;;;;;;35.20;31.60;;;7.50;99.90;;;8.45;79.67;98449.66;5185868;28;20221;-58
2022/03/17 01:21:47;;;;;;;32.97;29.70;;;7.40;99.90;;;8.26;80.37;98441.38;5185804;28;20291;-58
2022/03/17 01:24:21;;;;;;;34.57;31.03;;;7.40;99.90;;;8.19;80.39;98436.63;5190809;28;20183;-59
2022/03/17 01:26:54;;;;;;;35.03;31.33;;;7.40;99.90;;;8.24;79.95;98430.19;5187405;28;20688;-57
2022/03/17 01:29:29;;;;;;;36.07;32.37;;;7.40;99.90;;;8.45;75.25;98443.69;5189540;28;20226;-58
2022/03/17 01:32:02;;;;;;;36.20;32.40;;;7.60;99.90;;;8.52;73.48;98449.34;5194598;28;20213;-57
2022/03/17 01:34:35;;;;;;;36.73;32.90;;;7.80;99.90;;;8.70;71.85;98438.72;5185149;28;20654;-59
2022/03/17 01:37:08;;;;;;;36.67;32.77;;;8.00;99.90;;;8.69;72.19;98424.22;5189222;28;20202;-59
2022/03/17 01:39:42;;;;;;;35.90;32.10;;;8.20;99.90;;;8.84;71.54;98434.66;5192787;28;20234;-58
2022/03/17 01:42:16;;;;;;;35.30;31.60;;;8.20;99.90;;;8.84;72.19;98439.75;5190137;28;20228;-58
2022/03/17 01:44:49;;;;;;;37.30;33.30;;;8.20;99.90;;;8.88;70.29;98442.63;5185041;28;20574;-59
2022/03/17 01:47:28;;;;;;;37.73;33.80;;;8.30;99.90;;;9.05;70.54;98435.34;5198220;28;20187;-57
2022/03/17 01:50:05;;;;;;;37.67;33.57;;;8.40;99.90;;;8.78;71.30;98437.63;5179173;28;20249;-59
2022/03/17 01:52:39;;;;;;;36.50;32.80;;;8.30;99.90;;;8.72;71.83;98447.38;5188908;28;20203;-58
2022/03/17 01:55:17;;;;;;;36.27;32.37;;;8.10;99.90;;;8.70;72.57;98441.28;5187788;28;20202;-58
2022/03/17 01:57:50;;;;;;;35.20;31.50;;;8.10;99.90;;;8.67;72.19;98441.06;5184167;28;20233;-58
2022/03/17 02:00:24;;;;;;;35.83;32.00;;;8.00;99.90;;;8.68;72.05;98447.94;5176629;28;20203;-59
2022/03/17 02:02:57;;;;;;;35.10;31.57;;;8.00;99.90;;;8.63;72.14;98447.59;5193521;28;20186;-59
2022/03/17 02:05:30;;;;;;;34.53;30.97;;;8.00;99.90;;;8.60;72.09;98444.81;5185974;28;20674;-57
2022/03/17 02:08:05;;;;;;;35.90;32.20;;;8.00;99.90;;;8.58;71.74;98448.91;5188582;28;20195;-57
2022/03/17 02:13:26;;;;;;;36.20;32.30;;;7.90;99.90;;;8.61;71.09;98443.16;5171258;28;20655;-59
2022/03/17 02:16:01;;;;;;;34.97;31.40;;;8.00;99.90;;;8.64;71.31;98451.03;5192284;28;20206;-59
2022/03/17 02:18:34;;;;;;;34.07;30.57;;;7.90;99.90;;;8.56;73.01;98455.56;5185149;28;20245;-58
2022/03/17 02:21:08;;;;;;;35.40;31.70;;;7.90;99.90;;;8.51;74.10;98449.25;5185014;28;20218;-57
2022/03/17 02:26:34;;;;;;;34.57;30.93;;;7.70;99.90;;;8.37;75.16;98453.25;5187971;28;20662;-59
2022/03/17 02:29:07;;;;;;;34.30;30.93;;;7.70;99.90;;;8.33;75.69;98461.47;5193400;28;20702;-57
2022/03/17 02:31:41;;;;;;;34.87;31.30;;;7.60;99.90;;;8.23;74.49;98458.97;5178254;28;20203;-57
2022/03/17 02:34:17;;;;;;;33.20;29.90;;;7.50;99.90;;;8.21;74.89;98458.88;5187153;28;20226;-59
2022/03/17 02:36:53;;;;;;;32.27;29.03;;;7.50;99.90;;;8.22;75.39;98459.75;5188079;28;20211;-58
2022/03/17 02:39:27;;;;;;;34.87;31.17;;;7.50;99.90;;;8.19;75.44;98447.69;5191054;28;20224;-57
2022/03/17 02:42:01;;;;;;;33.43;29.90;;;7.50;99.90;;;8.24;75.23;98448.00;5181901;28;20226;-58
2022/03/17 02:44:34;;;;;;;35.47;31.80;;;7.40;99.90;;;8.17;75.92;98466.16;5171864;28;20199;-59
2022/03/17 02:47:07;;;;;;;34.10;30.33;;;7.40;99.90;;;8.10;76.76;98457.19;5186043;28;20186;-56
2022/03/17 02:49:41;;;;;;;33.57;30.07;;;7.30;99.90;;;8.05;77.56;98466.13;5184480;28;20225;-59
2022/03/17 02:52:14;;;;;;;34.57;30.87;;;7.30;99.90;;;8.01;77.59;98457.38;5186500;28;20199;-59
2022/03/17 02:54:48;;;;;;;32.77;29.37;;;7.20;99.90;;;7.93;77.70;98460.97;5194230;28;20565;-58
2022/03/17 02:57:22;;;;;;;33.43;29.87;;;7.20;99.90;;;7.91;78.17;98465.06;5184013;28;20262;-59
2022/03/17 02:59:55;;;;;;;33.23;29.63;;;7.20;99.90;;;7.87;78.96;98456.31;5184776;28;20218;-56
2022/03/17 03:02:28;;;;;;;32.47;29.17;;;7.10;99.90;;;7.84;79.21;98457.69;5183949;28;20197;-56
2022/03/17 03:05:01;;;;;;;32.13;28.83;;;7.00;99.90;;;7.73;79.49;98467.06;5189562;28;20205;-58
2022/03/17 03:07:35;;;;;;;32.50;29.07;;;6.90;99.90;;;7.74;80.66;98470.50;5182861;28;20235;-58
2022/03/17 03:10:10;;;;;;;31.67;28.40;;;6.90;99.90;;;7.73;81.44;98478.91;5187618;28;20581;-55
2022/03/17 03:12:43;;;;;;;32.53;29.23;;;6.90;99.90;;;7.71;80.87;98470.25;5193380;28;20197;-58
2022/03/17 03:15:16;;;;;;;31.37;28.17;;;6.90;99.90;;;7.65;80.20;98466.47;5183289;28;20575;-56
2022/03/17 03:17:49;;;;;;;31.80;28.50;;;6.90;99.90;;;7.63;80.69;98480.72;5185443;28;20217;-57
2022/03/17 03:20:23;;;;;;;32.90;29.57;;;6.90;99.90;;;7.48;81.73;98481.19;5183821;28;20214;-58
2022/03/17 03:22:57;;;;;;;34.70;29.57;;;6.80;99.90;;;7.46;82.32;98475.94;5184009;28;20539;-57
2022/03/17 03:25:31;;;;;;;33.73;29.67;;;6.80;99.90;;;7.50;81.88;98483.06;5184908;28;20195;-59
2022/03/17 03:28:08;;;;;;;31.57;28.20;;;6.80;99.90;;;7.48;81.94;98481.19;5182936;28;20196;-59
2022/03/17 03:30:41;;;;;;;33.73;30.07;;;6.80;99.90;;;7.47;81.28;98482.84;5187125;28;20204;-57
2022/03/17 03:33:14;;;;;;;33.87;30.37;;;6.70;99.90;;;7.59;81.66;98483.78;5186841;28;20251;-55
2022/03/17 03:38:38;;;;;;;32.67;29.30;;;6.80;99.90;;;7.63;82.56;98495.09;5185264;28;20237;-58
2022/03/17 03:41:12;;;;;;;32.50;29.00;;;6.70;99.90;;;7.54;82.59;98490.16;5187423;28;20218;-59
2022/03/17 03:43:45;;;;;;;33.27;29.87;;;6.70;99.90;;;7.55;82.65;98496.13;5189458;28;20224;-58
2022/03/17 03:46:19;;;;;;;32.73;29.33;;;6.80;99.90;;;7.54;82.88;98490.16;5190485;28;20213;-59
2022/03/17 03:48:52;;;;;;;30.40;27.30;;;6.70;99.90;;;7.55;82.59;98502.09;5183714;28;20583;-59
2022/03/17 03:51:25;;;;;;;31.23;27.93;;;6.70;99.90;;;7.54;83.38;98500.34;5180653;28;20200;-56
2022/03/17 03:56:52;;;;;;;30.90;27.53;;;6.60;99.90;;;7.44;84.18;98498.75;5191678;28;20214;-53
2022/03/17 03:59:29;;;;;;;30.73;27.47;;;6.60;99.90;;;7.37;84.78;98496.47;5180321;28;20218;-54
2022/03/17 04:02:05;;;;;;;32.13;28.53;;;6.60;99.90;;;7.31;84.73;98497.63;5189863;28;20199;-59
2022/03/17 04:04:40;;;;;;;32.87;29.40;;;6.60;99.90;;;7.37;84.53;98504.09;5177453;28;20199;-57
2022/03/17 04:07:13;;;;;;;32.30;28.87;;;6.60;99.90;;;7.32;84.54;98507.91;5184259;28;20202;-58
2022/03/17 04:09:46;;;;;;;34.30;30.70;;;6.60;99.90;;;7.36;84.64;98511.63;5183922;28;20215;-59
2022/03/17 04:12:21;;;;;;;32.93;29.43;;;6.60;99.90;;;7.43;84.62;98503.69;5186099;28;20585;-59
2022/03/17 04:14:54;;;;;;;30.20;27.00;;;6.60;99.90;;;7.39;85.01;98504.22;5189517;28;20288;-58
2022/03/17 04:17:27;;;;;;;32.17;28.83;;;6.60;99.90;;;7.32;84.00;98501.94;5183220;28;20222;-59
2022/03/17 04:20:00;;;;;;;31.90;28.57;;;6.50;99.90;;;7.41;82.82;98510.31;5183821;28;20226;-58
2022/03/17 04:22:33;;;;;;;33.23;29.67;;;6.50;99.90;;;7.18;83.49;98506.84;5185553;28;20205;-59
2022/03/17 04:25:08;;;;;;;32.70;29.23;;;6.40;99.90;;;7.12;84.01;98513.94;5191977;28;20214;-58
2022/03/17 04:27:42;;;;;;;31.10;27.77;;;6.40;99.90;;;7.12;84.85;98511.41;5185380;28;20190;-56
2022/03/17 04:30:15;;;;;;;33.30;29.63;;;6.40;99.90;;;7.20;84.89;98512.03;5185315;28;20221;-59
2022/03/17 04:32:48;;;;;;;34.33;30.07;;;6.40;99.90;;;7.15;84.50;98518.38;5183900;28;20205;-58
2022/03/17 04:35:21;;;;;;;32.60;29.20;;;6.40;99.90;;;7.10;84.87;98520.56;5181769;28;20190;-58
2022/03/17 04:37:55;;;;;;;34.47;30.80;;;6.40;99.90;;;7.13;84.83;98518.28;5187112;28;20248;-55
2022/03/17 04:40:28;;;;;;;33.73;30.13;;;6.40;99.90;;;7.13;84.72;98522.47;5188252;28;20207;-54
2022/03/17 04:43:02;;;;;;;32.13;28.73;;;6.40;99.90;;;7.14;84.60;98526.78;5190417;28;20203;-59
2022/03/17 04:45:35;;;;;;;32.97;29.10;;;6.40;99.90;;;7.13;84.31;98531.00;5185157;28;20204;-59
2022/03/17 04:48:08;;;;;;;33.50;30.00;;;6.40;99.90;;;7.14;84.91;98532.75;5187883;28;20190;-59
2022/03/17 04:50:42;;;;;;;32.97;29.57;;;6.50;99.90;;;7.21;84.54;98532.50;5186129;28;20207;-60
2022/03/17 04:53:32;;;;;;;33.37;29.57;;;6.50;99.90;;;7.27;84.38;98536.28;5181600;28;20199;-57
2022/03/17 04:56:08;;;;;;;33.07;29.57;;;6.60;99.90;;;7.33;84.06;98544.44;5188101;28;20596;-59
2022/03/17 04:58:43;;;;;;;33.47;29.90;;;6.60;99.90;;;7.37;84.00;98537.16;5186024;28;20222;-58
2022/03/17 05:01:17;;;;;;;34.00;30.37;;;6.60;99.90;;;7.40;84.18;98546.69;5183314;28;20221;-59
2022/03/17 05:03:51;;;;;;;32.90;29.37;;;6.60;99.90;;;7.34;84.94;98544.53;5185504;28;20201;-58
2022/03/17 05:06:24;;;;;;;32.37;29.03;;;6.60;99.90;;;7.37;84.57;98543.91;5183026;28;20252;-59
2022/03/17 05:08:59;;;;;;;31.43;28.10;;;6.60;99.90;;;7.40;84.75;98545.03;5187683;28;20228;-60
2022/03/17 05:11:32;;;;;;;33.03;28.77;;;6.60;99.90;;;7.39;84.77;98547.47;5185105;28;20198;-58
2022/03/17 05:14:06;;;;;;;32.33;28.93;;;6.50;99.90;;;7.31;86.06;98556.13;5187313;28;20208;-58
2022/03/17 05:16:40;;;;;;;31.90;27.33;;;6.50;99.90;;;7.29;86.08;98562.72;5184950;28;20194;-58
2022/03/17 05:19:14;;;;;;;30.67;27.37;;;6.50;99.90;;;7.30;86.43;98550.16;5184687;28;20233;-59
2022/03/17 05:21:47;;;;;;;30.90;27.70;;;6.50;99.90;;;7.30;85.77;98562.88;5185796;28;20643;-58
2022/03/17 05:24:20;;;;;;;31.10;27.70;;;6.50;99.90;;;7.31;86.01;98568.84;5183783;28;20194;-59
2022/03/17 05:26:54;;;;;;;30.27;27.07;;;6.50;99.90;;;7.30;86.08;98569.59;5186139;28;21018;-58
2022/03/17 05:29:29;;;;;;;31.70;28.30;;;6.50;99.90;;;7.31;86.17;98571.38;5185290;28;20252;-59
2022/03/17 05:32:02;;;;;;;33.43;29.50;;;6.50;99.90;;;7.30;85.38;98570.50;5185185;28;20194;-60
2022/03/17 05:34:36;;;;;;;32.53;29.13;;;6.50;99.90;;;7.36;85.61;98580.28;5184718;28;20272;-58
2022/03/17 05:37:09;;;;;;;33.80;30.20;;;6.50;99.90;;;7.29;85.12;98580.53;5187124;28;20201;-58
2022/03/17 05:39:42;;;;;;;32.60;29.10;;;6.50;99.90;;;7.27;85.20;98582.97;5185656;28;20222;-58
2022/03/17 05:42:15;;;;;;;33.10;29.63;;;6.50;99.90;;;7.32;85.86;98583.31;5184997;28;20698;-58
2022/03/17 05:44:50;;;;;;;31.50;28.23;;;6.60;99.90;;;7.34;85.33;98592.84;5187024;28;20203;-58
2022/03/17 05:47:23;;;;;;;32.70;28.83;;;6.50;99.90;;;7.35;85.54;98578.47;5183824;28;20202;-59
2022/03/17 05:49:56;;;;;;;35.13;31.17;;;6.50;99.90;;;7.28;86.03;98584.72;5188273;28;20710;-58
2022/03/17 05:52:29;;;;;;;33.70;30.20;;;6.50;99.90;;;7.31;85.92;98586.63;5189298;28;20221;-59
2022/03/17 05:55:03;;;;;;;33.77;30.17;;;6.50;99.90;;;7.14;84.69;98570.88;5183948;28;20217;-59
2022/03/17 05:57:36;;;;;;;33.73;30.17;;;6.30;99.90;;;7.18;84.47;98575.47;5183184;28;20289;-60
2022/03/17 06:00:14;;;;;;;32.90;29.33;;;6.40;99.90;;;7.25;84.63;98570.88;5182142;28;20218;-57
2022/03/17 06:02:48;;;;;;;35.03;31.23;;;6.50;99.90;;;7.28;83.70;98560.97;5180045;28;20650;-59
2022/03/17 06:05:22;;;;;;;33.60;30.03;;;6.50;99.90;;;7.26;84.43;98563.34;5183224;28;20199;-58
2022/03/17 06:07:59;;;;;;;35.80;31.90;;;6.50;99.90;;;7.20;85.73;98563.75;5181924;28;20229;-58
2022/03/17 06:10:34;;;;;;;34.17;30.57;;;6.50;99.90;;;7.13;85.82;98566.56;5184232;28;20230;-59
2022/03/17 06:13:07;;;;;;;35.60;31.80;;;6.40;99.90;;;7.19;85.05;98577.25;5183626;28;20246;-59
2022/03/17 06:15:42;;;;;;;36.17;32.00;;;6.50;99.90;;;7.13;85.43;98592.00;5184803;28;20220;-57
2022/03/17 06:18:15;;;;;;;35.50;31.70;;;6.50;99.90;;;7.19;85.91;98602.66;5184532;28;20230;-58
2022/03/17 06:20:49;;;;;;;34.57;30.97;;;6.60;99.90;;;7.29;85.38;98599.19;5184809;28;20276;-58
2022/03/17 06:23:22;;;;;;;41.73;37.23;;;6.60;99.90;;;7.39;85.11;98611.03;5184067;28;20671;-59
2022/03/17 06:25:55;;;;;;;36.17;32.37;;;6.60;99.90;;;7.50;85.03;98615.34;5182898;28;20210;-59
2022/03/17 06:28:28;;;;;;;36.70;32.80;;;6.70;99.90;;;7.58;84.29;98618.47;5177576;28;20221;-58
2022/03/17 06:31:03;;;;;;;36.60;32.80;;;6.80;99.90;;;7.51;85.25;98627.28;5181987;28;20195;-59
2022/03/17 06:33:36;;;;;;;35.83;32.17;;;6.80;99.90;;;7.56;84.74;98623.47;5184616;28;20247;-58
2022/03/17 06:36:09;;;;;;;33.83;29.90;;;6.70;99.90;;;7.66;84.39;98630.16;5187728;28;20220;-58
2022/03/17 06:38:42;;;;;;;33.27;29.77;;;6.70;99.90;;;7.67;84.80;98635.41;5181997;28;20223;-59
2022/03/17 06:41:16;;;;;;;34.63;30.77;;;6.70;99.90;;;7.60;85.07;98622.94;5181805;28;20217;-59
2022/03/17 06:43:49;;;;;;;33.90;30.30;;;6.80;99.90;;;7.56;85.15;98625.13;5175548;28;20217;-58
2022/03/17 06:46:24;;;;;;;33.00;29.40;;;6.70;99.90;;;7.50;85.15;98622.97;5183880;28;20545;-58
2022/03/17 06:48:58;;;;;;;32.67;29.27;;;6.70;99.90;;;7.50;85.08;98625.50;5189271;28;20224;-58
2022/03/17 06:51:31;;;;;;;33.53;29.97;;;6.70;99.90;;;7.49;86.14;98621.16;5187530;28;20213;-57
2022/03/17 06:54:04;;;;;;;33.00;29.30;;;6.80;99.90;;;7.55;85.53;98629.28;5190517;28;20225;-58
2022/03/17 06:56:37;;;;;;;33.70;30.20;;;6.80;99.90;;;7.52;85.58;98629.03;5188166;28;20198;-58
2022/03/17 06:59:10;;;;;;;34.40;30.73;;;6.80;99.90;;;7.55;84.70;98626.75;5186183;28;20237;-59
2022/03/17 07:01:44;;;;;;;36.17;31.17;;;6.80;99.90;;;7.62;84.37;98643.41;5191697;28;20673;-57
2022/03/17 07:04:18;;;;;;;36.07;32.20;;;6.90;99.90;;;7.66;83.48;98645.44;5191236;28;20558;-55
2022/03/17 07:06:51;;;;;;;36.17;32.37;;;7.00;99.90;;;7.80;83.39;98652.53;5189851;28;20195;-60
2022/03/17 07:09:24;;;;;;;36.03;31.77;;;7.10;99.90;;;7.94;83.05;98646.00;5190348;28;20227;-58
2022/03/17 07:11:57;;;;;;;33.67;30.00;;;7.10;99.90;;;7.91;84.03;98640.66;5190182;28;20198;-58
2022/03/17 07:14:30;;;;;;;35.33;31.53;;;7.20;99.90;;;7.98;84.16;98642.03;5188591;28;20213;-57
2022/03/17 07:17:05;;;;;;;37.60;32.50;;;7.20;99.90;;;8.03;83.55;98641.63;5192497;28;20260;-58
2022/03/17 07:19:39;;;;;;;35.97;32.17;;;7.30;99.90;;;7.97;83.07;98633.50;5189826;28;20222;-58
2022/03/17 07:22:12;;;;;;;35.03;31.37;;;7.20;99.90;;;8.05;82.35;98649.41;5193176;28;20209;-59
2022/03/17 07:24:45;;;;;;;34.67;30.97;;;7.20;99.90;;;8.03;82.79;98654.34;5191696;28;20203;-60
2022/03/17 07:27:18;;;;;;;41.23;35.13;;;7.30;99.90;;;8.07;82.29;98653.84;5191960;28;20202;-59
2022/03/17 07:29:52;;;;;;;51.83;40.50;;;7.40;99.90;;;8.11;82.20;98648.22;5185238;28;20532;-59
2022/03/17 07:32:26;;;;;;;45.33;37.53;;;7.40;99.90;;;8.17;80.63;98659.66;5183761;28;20207;-59
2022/03/17 07:34:59;;;;;;;38.47;34.20;;;7.50;99.90;;;8.29;79.89;98666.59;5187607;28;20662;-58
2022/03/17 07:37:33;;;;;;;39.70;35.23;;;7.70;99.90;;;8.43;77.43;98664.28;5186091;28;20655;-57
2022/03/17 07:40:08;;;;;;;37.73;33.73;;;7.80;99.90;;;8.53;77.11;98671.91;5186675;28;20689;-59
2022/03/17 07:42:41;;;;;;;38.67;34.50;;;7.80;99.90;;;8.64;76.72;98671.06;5186174;28;20198;-59
2022/03/17 07:45:14;;;;;;;37.47;33.07;;;8.00;99.90;;;8.75;76.59;98684.63;5188676;28;20222;-58
2022/03/17 07:47:50;;;;;;;37.13;33.30;;;8.10;99.90;;;8.90;76.00;98696.03;5187341;28;20209;-58
2022/03/17 07:50:23;;;;;;;37.40;33.27;;;8.20;99.90;;;9.04;75.59;98697.06;5188064;28;20468;-58
2022/03/17 07:52:58;;;;;;;37.20;33.30;;;8.30;99.90;;;9.10;74.23;98707.75;5188062;28;20199;-59
2022/03/17 07:55:31;;;;;;;39.27;35.07;;;8.40;99.90;;;9.15;73.01;98705.53;5189266;28;20649;-58
2022/03/17 07:58:04;;;;;;;38.07;34.07;;;8.50;99.90;;;9.18;72.76;98714.28;5188686;28;20712;-58
2022/03/17 08:00:37;;;;;;;37.33;32.73;;;8.50;99.90;;;9.33;72.34;98716.22;5189809;28;20218;-58
2022/03/17 08:03:12;;;;;;;39.33;35.13;;;8.60;99.90;;;9.39;72.20;98722.72;5189177;28;20198;-58
2022/03/17 08:05:46;;;;;;;35.67;32.00;;;8.60;99.90;;;9.45;71.77;98722.28;5188759;28;20588;-58
2022/03/17 08:08:20;;;;;;;37.37;33.53;;;8.70;99.90;;;9.56;72.79;98725.66;5183748;28;20585;-59
2022/03/17 08:10:53;;;;;;;37.00;33.13;;;8.70;99.90;;;9.67;72.61;98727.31;5190481;28;20289;-59
2022/03/17 08:13:26;;;;;;;37.60;33.60;;;8.80;99.90;;;9.75;72.65;98725.34;5188519;28;20203;-58
2022/03/17 08:16:01;;;;;;;36.50;32.70;;;8.80;99.90;;;9.74;72.74;98728.69;5189444;28;20201;-58
2022/03/17 08:18:36;;;;;;;38.47;34.28;;;8.90;99.90;;;9.80;72.95;98734.22;5186283;28;20748;-59
2022/03/17 08:21:09;;;;;;;36.38;32.63;;;8.90;99.90;;;9.85;71.98;98736.34;5189868;28;20686;-59
2022/03/17 08:23:42;;;;;;;35.37;31.67;;;9.00;99.90;;;9.95;71.79;98734.47;5187958;28;20187;-59
2022/03/17 08:26:16;;;;;;;35.83;32.03;;;9.00;99.90;;;10.03;72.34;98730.81;5190846;28;20635;-59
2022/03/17 08:28:49;;;;;;;37.45;33.65;;;9.10;99.90;;;10.08;71.64;98739.72;5195635;28;20697;-58
2022/03/17 08:31:23;;;;;;;37.03;33.22;;;9.10;99.90;;;10.08;70.87;98739.72;5186120;28;20216;-59
2022/03/17 08:33:58;;;;;;;38.40;34.60;;;9.10;99.90;;;10.13;69.96;98730.72;5182863;28;20206;-59
2022/03/17 08:36:31;;;;;;;38.55;34.47;;;9.20;99.90;;;10.06;67.57;98720.81;5184386;28;20196;-57
2022/03/17 08:39:04;;;;;;;37.88;33.90;;;9.20;99.90;;;10.10;67.24;98725.34;5184633;28;20228;-58
2022/03/17 08:41:40;;;;;;;39.40;35.42;;;9.30;99.90;;;10.11;67.12;98735.69;5184960;28;20217;-59
2022/03/17 08:44:13;;;;;;;38.47;34.67;;;9.30;99.90;;;10.21;66.56;98732.13;5184875;28;20236;-59
2022/03/17 08:49:39;;;;;;;38.25;34.13;;;9.40;99.90;;;10.34;66.99;98737.41;5183363;28;20219;-57
2022/03/17 08:52:12;;;;;;;39.33;35.33;;;9.50;99.90;;;10.48;66.38;98747.75;5186028;28;20198;-59
2022/03/17 08:54:45;;;;;;;37.67;33.75;;;9.60;99.90;;;10.52;66.85;98748.03;5182258;28;20194;-58
2022/03/17 08:57:18;;;;;;;37.65;33.28;;;9.70;99.90;;;10.58;66.57;98742.47;5182334;28;20207;-58
2022/03/17 08:59:53;;;;;;;38.83;34.70;;;9.80;99.90;;;10.66;65.78;98749.03;5180995;28;20578;-58
2022/03/17 09:02:26;;;;;;;38.05;34.22;;;9.80;99.90;;;10.69;65.81;98746.69;5185222;28;20198;-54
2022/03/17 09:05:01;;;;;;;39.22;35.13;;;9.90;99.90;;;10.70;65.55;98751.03;5190640;28;20206;-58
2022/03/17 09:07:34;;;;;;;39.80;35.75;;;9.90;99.90;;;10.83;64.51;98755.34;5183603;28;20563;-60
2022/03/17 09:10:08;;;;;;;38.63;34.60;;;10.00;99.90;;;10.79;65.06;98753.38;5186779;28;20214;-58
2022/03/17 09:12:41;;;;;;;38.53;34.53;;;9.90;99.90;;;10.81;65.52;98750.09;5189266;28;20195;-57
2022/03/17 09:15:14;;;;;;;38.30;34.45;;;10.00;99.90;;;10.80;65.40;98748.34;5184086;28;20213;-58
2022/03/17 09:17:47;;;;;;;38.22;34.22;;;9.90;99.90;;;10.79;64.82;98749.13;5185823;28;20212;-59
2022/03/17 09:20:21;;;;;;;37.20;33.50;;;9.90;99.90;;;10.81;64.91;98749.22;5181161;28;20219;-58
2022/03/17 09:22:54;;;;;;;39.05;34.88;;;9.90;99.90;;;10.81;65.36;98760.34;5192819;28;20198;-58
2022/03/17 09:25:28;;;;;;;37.50;33.55;;;10.00;99.90;;;10.93;65.15;98746.63;5190467;28;20198;-58
2022/03/17 09:28:03;;;;;;;39.33;35.25;;;10.00;99.90;;;10.85;64.64;98752.91;5187227;28;20198;-59
2022/03/17 09:30:37;;;;;;;37.90;34.08;;;10.00;99.90;;;10.88;64.33;98748.00;5190441;28;20202;-59
2022/03/17 09:33:11;;;;;;;38.55;34.75;;;10.00;99.90;;;10.87;64.74;98759.00;5180588;28;20219;-57
2022/03/17 09:35:47;;;;;;;39.33;35.35;;;10.00;99.90;;;10.80;64.61;98750.91;5179463;28;20663;-60
2022/03/17 09:38:21;;;;;;;40.00;35.92;;;9.90;99.90;;;10.74;65.58;98762.38;5180445;28;20317;-57
2022/03/17 09:40:55;;;;;;;38.05;34.17;;;9.90;99.90;;;10.76;65.60;98754.03;5182330;28;20221;-59
2022/03/17 09:43:31;;;;;;;38.55;34.58;;;9.90;99.90;;;10.86;63.29;98749.56;5183672;28;20206;-56
2022/03/17 09:46:08;;;;;;;38.28;34.42;;;10.00;99.90;;;10.82;64.04;98751.91;5185902;28;20575;-59
2022/03/17 09:48:41;;;;;;;39.15;35.13;;;9.90;99.90;;;10.87;64.23;98759.88;5183957;28;20564;-58
2022/03/17 09:51:19;;;;;;;36.55;32.67;;;10.00;99.90;;;10.81;64.81;98762.00;5182212;28;20201;-58
2022/03/17 09:53:54;;;;;;;37.75;33.60;;;10.00;99.90;;;10.76;65.51;98760.81;5188053;28;20203;-57
2022/03/17 09:56:28;;;;;;;36.38;32.45;;;10.00;99.90;;;10.82;64.96;98764.69;5183583;28;20206;-59
2022/03/17 09:59:02;;;;;;;39.15;35.05;;;10.00;99.90;;;10.78;65.26;98767.78;5180427;28;20598;-58
2022/03/17 10:01:36;;;;;;;39.22;35.03;;;10.00;99.90;;;10.78;65.84;98767.78;5186293;28;20211;-58
2022/03/17 10:04:10;;;;;;;39.80;35.70;;;10.00;99.90;;;10.88;66.20;98773.59;5188716;28;20208;-58
2022/03/17 10:06:44;;;;;;;38.05;34.15;;;10.00;99.90;;;10.92;63.83;98773.88;5181507;28;20195;-59
2022/03/17 10:09:17;;;;;;;36.67;32.90;;;10.00;99.90;;;10.94;63.93;98779.13;5184599;28;20221;-58
2022/03/17 10:12:02;;;;;;;35.38;31.73;;;10.00;99.90;;;11.05;64.50;98776.53;5182744;28;20206;-59
2022/03/17 10:14:40;;;;;;;39.33;35.15;;;10.20;99.90;;;11.11;64.14;98776.06;5185825;28;20202;-58
2022/03/17 10:17:30;;;;;;;38.97;34.92;;;10.20;99.90;;;11.20;64.08;98773.25;5187014;28;20198;-58
2022/03/17 10:20:17;;;;;;;37.85;33.80;;;10.30;99.90;;;11.19;63.36;98772.38;5187246;28;20222;-60
2022/03/17 10:22:54;;;;;;;39.75;35.67;;;10.40;99.90;;;11.23;64.37;98778.59;5180985;28;20209;-59
2022/03/17 10:25:30;;;;;;;38.80;34.70;;;10.40;99.90;;;11.45;64.08;98780.97;5184174;28;20198;-58
2022/03/17 10:28:04;;;;;;;37.00;33.28;;;10.60;99.90;;;11.56;63.47;98780.03;5182066;28;20683;-58
2022/03/17 10:30:37;;;;;;;37.30;33.53;;;10.60;99.90;;;11.78;62.56;98784.03;5180951;28;20202;-58
2022/03/17 10:33:20;;;;;;;38.67;34.85;;;10.80;99.90;;;11.63;62.83;98774.53;5186692;28;20220;-58
2022/03/17 10:35:53;;;;;;;36.97;33.17;;;10.80;99.90;;;11.66;62.90;98784.09;5184140;28;20205;-58
2022/03/17 10:38:27;;;;;;;37.47;33.47;;;10.80;99.90;;;11.56;63.42;98791.91;5179098;28;20222;-59
2022/03/17 10:41:02;;;;;;;37.67;33.85;;;10.80;99.90;;;11.64;63.30;98791.66;5181264;28;20264;-58
2022/03/17 10:43:35;;;;;;;37.85;33.67;;;10.70;99.90;;;11.81;62.47;98797.03;5187551;28;20652;-59
2022/03/17 10:46:11;;;;;;;39.35;35.25;;;10.80;99.90;;;11.76;63.17;98788.13;5186529;28;20206;-59
2022/03/17 10:48:55;;;;;;;39.33;35.35;;;10.80;99.90;;;11.69;63.16;98790.28;5184341;28;20308;-60
2022/03/17 10:51:34;;;;;;;35.15;31.55;;;10.70;99.90;;;11.78;63.54;98796.81;5175871;28;20201;-60
2022/03/17 10:54:11;;;;;;;36.40;32.72;;;10.80;99.90;;;11.76;63.48;98798.38;5184990;28;20205;-59
2022/03/17 10:56:58;;;;;;;37.67;33.97;;;10.80;99.90;;;11.81;63.04;98799.59;5181021;28;20199;-59
2022/03/17 10:59:39;;;;;;;37.42;33.53;;;10.80;99.90;;;11.71;63.08;98806.66;5179258;28;20230;-59
2022/03/17 11:02:16;;;;;;;39.13;35.15;;;10.80;99.90;;;11.78;63.46;98796.81;5178258;28;20214;-59